createdAt,value
2023-04-20T00:01:27.800Z,1.10
2023-04-20T00:03:55.078Z,1.00
2023-04-20T00:06:22.396Z,0.70
2023-04-20T00:08:49.346Z,2.05
2023-04-20T00:11:16.357Z,1.80
2023-04-20T00:13:45.683Z,0.90
2023-04-20T00:16:13.804Z,0.70
2023-04-20T00:18:40.733Z,1.88
2023-04-20T00:21:07.946Z,1.00
2023-04-20T00:23:35.050Z,1.00
2023-04-20T00:26:02.153Z,1.45
2023-04-20T00:28:29.497Z,0.82
2023-04-20T00:30:56.589Z,0.95
2023-04-20T00:33:23.596Z,1.83
2023-04-20T00:35:50.614Z,1.00
2023-04-20T00:38:17.605Z,0.90
2023-04-20T00:40:44.775Z,0.90
2023-04-20T00:43:13.441Z,1.05
2023-04-20T00:45:40.744Z,1.23
2023-04-20T00:48:08.003Z,0.63
2023-04-20T00:50:36.073Z,1.15
2023-04-20T00:53:03.486Z,1.52
2023-04-20T00:55:31.237Z,1.05
2023-04-20T00:57:58.950Z,1.38
2023-04-20T01:00:27.513Z,0.90
2023-04-20T01:02:55.094Z,1.00
2023-04-20T01:05:22.780Z,1.30
2023-04-20T01:07:50.097Z,1.20
2023-04-20T01:10:17.874Z,1.45
2023-04-20T01:12:45.030Z,1.10
2023-04-20T01:15:12.507Z,0.82
2023-04-20T01:17:40.139Z,0.93
2023-04-20T01:20:14.818Z,1.33
2023-04-20T01:22:50.980Z,1.20
2023-04-20T01:25:18.713Z,0.90
2023-04-20T01:27:46.560Z,1.20
2023-04-20T01:30:14.609Z,1.10
2023-04-20T01:32:41.968Z,1.98
2023-04-20T01:35:09.998Z,2.20
2023-04-20T01:37:39.090Z,1.90
2023-04-20T01:40:09.349Z,1.52
2023-04-20T01:42:37.113Z,1.98
2023-04-20T01:45:06.248Z,1.95
2023-04-20T01:47:33.881Z,1.60
2023-04-20T01:50:01.110Z,1.45
2023-04-20T01:52:28.271Z,1.58
2023-04-20T01:54:55.344Z,1.73
2023-04-20T01:57:24.931Z,1.20
2023-04-20T01:59:51.896Z,1.45
2023-04-20T02:02:19.068Z,1.35
2023-04-20T02:04:46.150Z,1.88
2023-04-20T02:07:13.180Z,1.25
2023-04-20T02:09:40.212Z,1.10
2023-04-20T02:12:07.365Z,1.35
2023-04-20T02:14:34.306Z,1.10
2023-04-20T02:17:01.947Z,1.23
2023-04-20T02:19:28.950Z,2.55
2023-04-20T02:21:56.012Z,1.00
2023-04-20T02:24:23.037Z,1.00
2023-04-20T02:26:49.988Z,0.80
2023-04-20T02:29:17.323Z,1.33
2023-04-20T02:31:45.261Z,0.77
2023-04-20T02:34:16.353Z,1.20
2023-04-20T02:36:43.390Z,1.20
2023-04-20T02:39:13.136Z,0.90
2023-04-20T02:41:40.125Z,1.42
2023-04-20T02:44:07.289Z,1.23
2023-04-20T02:46:36.878Z,1.00
2023-04-20T02:49:04.318Z,1.10
2023-04-20T02:51:35.589Z,1.35
2023-04-20T02:54:02.630Z,1.10
2023-04-20T02:56:31.009Z,1.17
2023-04-20T02:59:02.515Z,1.00
2023-04-20T03:01:42.448Z,1.30
2023-04-20T03:04:15.043Z,1.17
2023-04-20T03:06:53.823Z,1.00
2023-04-20T03:09:28.279Z,1.00
2023-04-20T03:12:14.561Z,1.45
2023-04-20T03:17:32.048Z,1.15
2023-04-20T03:19:59.776Z,2.63
2023-04-20T03:22:26.830Z,1.30
2023-04-20T03:24:57.947Z,1.02
2023-04-20T03:27:48.073Z,1.20
2023-04-20T03:30:15.982Z,1.60
2023-04-20T03:32:46.330Z,2.20
2023-04-20T03:35:13.877Z,1.45
2023-04-20T03:37:41.007Z,1.38
2023-04-20T03:40:10.506Z,1.08
2023-04-20T03:42:38.920Z,1.20
2023-04-20T03:45:06.999Z,1.05
2023-04-20T03:47:34.093Z,1.02
2023-04-20T03:50:01.378Z,1.52
2023-04-20T03:52:28.611Z,1.20
2023-04-20T03:54:56.092Z,1.20
2023-04-20T03:57:23.034Z,1.25
2023-04-20T03:59:49.984Z,1.98
2023-04-20T04:02:22.685Z,1.48
2023-04-20T04:04:50.718Z,1.33
2023-04-20T04:07:17.781Z,1.38
2023-04-20T04:09:44.837Z,1.00
2023-04-20T04:12:13.108Z,1.17
2023-04-20T04:14:40.876Z,1.17
2023-04-20T04:17:09.222Z,1.17
2023-04-20T04:19:40.698Z,1.23
2023-04-20T04:22:08.326Z,1.75
2023-04-20T04:24:39.285Z,2.03
2023-04-20T04:27:08.640Z,1.48
2023-04-20T04:32:14.796Z,1.10
2023-04-20T04:34:44.402Z,1.55
2023-04-20T04:37:12.331Z,1.20
2023-04-20T04:39:44.513Z,1.10
2023-04-20T04:42:21.419Z,1.10
2023-04-20T04:44:49.457Z,1.10
2023-04-20T04:47:24.994Z,1.13
2023-04-20T04:49:52.752Z,1.10
2023-04-20T04:52:19.816Z,1.50
2023-04-20T04:54:47.179Z,1.33
2023-04-20T04:57:14.968Z,0.90
2023-04-20T04:59:42.422Z,1.17
2023-04-20T05:02:09.920Z,1.42
2023-04-20T05:04:37.055Z,2.13
2023-04-20T05:07:04.142Z,1.60
2023-04-20T05:09:33.437Z,1.10
2023-04-20T05:12:01.085Z,1.55
2023-04-20T05:14:28.058Z,2.15
2023-04-20T05:16:55.039Z,1.00
2023-04-20T05:19:22.076Z,1.10
2023-04-20T05:21:48.994Z,1.50
2023-04-20T05:24:17.682Z,1.15
2023-04-20T05:26:44.713Z,1.10
2023-04-20T05:29:11.789Z,1.27
2023-04-20T05:31:38.952Z,1.10
2023-04-20T05:34:05.962Z,1.98
2023-04-20T05:36:33.669Z,1.65
2023-04-20T05:39:00.923Z,1.67
2023-04-20T05:41:27.911Z,1.13
2023-04-20T05:43:55.597Z,1.85
2023-04-20T05:46:23.890Z,1.38
2023-04-20T05:48:51.238Z,1.40
2023-04-20T05:51:18.329Z,1.38
2023-04-20T05:53:45.314Z,2.15
2023-04-20T05:56:12.743Z,1.13
2023-04-20T05:58:40.226Z,1.63
2023-04-20T06:01:07.418Z,2.25
2023-04-20T06:03:39.643Z,1.20
2023-04-20T06:06:07.275Z,1.30
2023-04-20T06:08:36.781Z,1.27
2023-04-20T06:11:03.986Z,1.80
2023-04-20T06:13:30.877Z,1.73
2023-04-20T06:15:58.002Z,1.45
2023-04-20T06:18:25.178Z,2.00
2023-04-20T06:20:52.354Z,1.20
2023-04-20T06:23:19.368Z,1.92
2023-04-20T06:25:46.343Z,1.50
2023-04-20T06:28:13.348Z,2.20
2023-04-20T06:30:40.360Z,1.30
2023-04-20T06:35:35.470Z,1.52
2023-04-20T06:38:02.707Z,1.50
2023-04-20T06:40:30.208Z,1.40
2023-04-20T06:42:57.222Z,1.50
2023-04-20T06:45:24.328Z,2.65
2023-04-20T06:47:51.505Z,1.08
2023-04-20T06:50:18.556Z,1.63
2023-04-20T06:52:45.822Z,1.15
2023-04-20T06:55:13.420Z,1.02
2023-04-20T06:57:40.794Z,0.93
2023-04-20T07:00:09.877Z,1.58
2023-04-20T07:03:03.499Z,1.92
2023-04-20T07:05:30.822Z,1.30
2023-04-20T07:07:57.760Z,1.17
2023-04-20T07:10:24.808Z,1.55
2023-04-20T07:12:51.714Z,1.10
2023-04-20T07:15:18.719Z,1.50
2023-04-20T07:17:46.018Z,1.42
2023-04-20T07:20:13.024Z,1.00
2023-04-20T07:22:40.495Z,1.23
2023-04-20T07:25:09.100Z,1.42
2023-04-20T07:27:38.428Z,1.40
2023-04-20T07:30:06.887Z,1.33
2023-04-20T07:32:34.826Z,1.20
2023-04-20T07:35:02.036Z,2.33
2023-04-20T07:37:30.086Z,1.25
2023-04-20T07:39:57.050Z,1.83
2023-04-20T07:42:24.109Z,4.03
2023-04-20T07:44:51.306Z,1.30
2023-04-20T07:47:18.288Z,1.38
2023-04-20T07:49:45.249Z,1.30
2023-04-20T07:52:16.979Z,1.77
2023-04-20T07:54:47.753Z,1.50
2023-04-20T07:57:15.325Z,1.95
2023-04-20T07:59:42.483Z,1.50
2023-04-20T08:02:09.660Z,1.80
2023-04-20T08:04:40.050Z,1.35
2023-04-20T08:07:07.299Z,1.60
2023-04-20T08:09:35.197Z,1.23
2023-04-20T08:12:02.390Z,1.30
2023-04-20T08:14:29.575Z,1.33
2023-04-20T08:16:56.523Z,1.45
2023-04-20T08:19:23.698Z,1.45
2023-04-20T08:21:51.707Z,2.20
2023-04-20T08:24:19.328Z,1.60
2023-04-20T08:26:46.604Z,1.00
2023-04-20T08:29:13.645Z,2.75
2023-04-20T08:31:40.854Z,1.92
2023-04-20T08:34:07.785Z,1.30
2023-04-20T08:36:34.749Z,1.50
2023-04-20T08:39:13.226Z,1.63
2023-04-20T08:41:40.203Z,1.50
2023-04-20T08:44:08.263Z,1.35
2023-04-20T08:46:35.960Z,1.42
2023-04-20T08:49:04.071Z,1.60
2023-04-20T08:51:32.813Z,1.88
2023-04-20T08:54:06.851Z,1.40
2023-04-20T08:56:38.954Z,1.60
2023-04-20T08:59:09.275Z,1.15
2023-04-20T09:01:39.174Z,1.60
2023-04-20T09:04:39.643Z,1.50
2023-04-20T09:07:07.421Z,1.10
2023-04-20T09:09:34.479Z,1.83
2023-04-20T09:12:03.858Z,1.33
2023-04-20T09:14:31.453Z,1.48
2023-04-20T09:17:02.418Z,1.33
2023-04-20T09:19:30.573Z,1.35
2023-04-20T09:22:04.035Z,1.33
2023-04-20T09:24:33.983Z,1.60
2023-04-20T09:27:02.550Z,2.03
2023-04-20T09:29:30.271Z,1.55
2023-04-20T09:31:57.469Z,1.55
2023-04-20T09:34:25.943Z,1.98
2023-04-20T09:36:56.044Z,1.70
2023-04-20T09:39:26.989Z,1.30
2023-04-20T09:41:58.126Z,2.10
2023-04-20T09:44:25.252Z,2.13
2023-04-20T09:46:53.059Z,1.73
2023-04-20T09:49:22.959Z,2.25
2023-04-20T09:51:50.210Z,2.17
2023-04-20T09:54:17.540Z,1.80
2023-04-20T09:56:46.224Z,1.83
2023-04-20T09:59:13.918Z,2.00
2023-04-20T10:01:41.666Z,1.70
2023-04-20T10:04:14.720Z,1.85
2023-04-20T10:06:57.382Z,1.33
2023-04-20T10:09:29.008Z,1.75
2023-04-20T10:12:09.422Z,2.35
2023-04-20T10:14:36.453Z,1.67
2023-04-20T10:17:09.113Z,1.60
2023-04-20T10:19:40.366Z,1.52
2023-04-20T10:22:09.232Z,1.85
2023-04-20T10:24:38.319Z,1.67
2023-04-20T10:27:19.987Z,1.70
2023-04-20T10:29:47.581Z,1.60
2023-04-20T10:32:27.438Z,1.40
2023-04-20T10:35:11.382Z,1.67
2023-04-20T10:37:51.511Z,2.33
2023-04-20T10:40:29.483Z,1.67
2023-04-20T10:42:56.697Z,2.28
2023-04-20T10:45:35.264Z,2.95
2023-04-20T10:48:09.660Z,1.67
2023-04-20T10:50:37.255Z,1.85
2023-04-20T10:53:04.717Z,1.40
2023-04-20T10:55:31.812Z,1.60
2023-04-20T10:57:58.843Z,1.42
2023-04-20T11:00:31.111Z,1.55
2023-04-20T11:02:58.421Z,1.50
2023-04-20T11:05:27.380Z,1.90
2023-04-20T11:07:59.429Z,1.92
2023-04-20T11:10:42.224Z,1.50
2023-04-20T11:13:29.169Z,1.70
2023-04-20T11:15:56.657Z,1.10
2023-04-20T11:18:23.676Z,1.58
2023-04-20T11:20:52.480Z,2.10
2023-04-20T11:23:21.279Z,1.73
2023-04-20T11:25:57.911Z,1.20
2023-04-20T11:28:30.399Z,1.65
2023-04-20T11:30:57.532Z,1.55
2023-04-20T11:33:31.426Z,1.42
2023-04-20T11:36:01.004Z,1.50
2023-04-20T11:38:33.864Z,1.45
2023-04-20T11:41:04.782Z,1.35
2023-04-20T11:43:32.502Z,1.20
2023-04-20T11:46:03.067Z,1.40
2023-04-20T11:48:31.705Z,1.20
2023-04-20T11:50:59.209Z,1.73
2023-04-20T11:53:26.790Z,1.50
2023-04-20T11:55:53.883Z,1.50
2023-04-20T11:58:21.089Z,2.03
2023-04-20T12:00:48.128Z,1.40
2023-04-20T12:03:15.204Z,1.67
2023-04-20T12:05:43.295Z,1.50
2023-04-20T12:08:10.383Z,1.33
2023-04-20T12:10:40.460Z,1.25
2023-04-20T12:13:07.444Z,1.00
2023-04-20T12:15:34.554Z,1.27
2023-04-20T12:18:01.790Z,1.00
2023-04-20T12:20:28.897Z,1.23
2023-04-20T12:22:57.802Z,1.50
2023-04-20T12:25:26.394Z,1.25
2023-04-20T12:27:53.431Z,1.13
2023-04-20T12:30:20.490Z,1.38
2023-04-20T12:32:47.545Z,1.40
2023-04-20T12:35:14.580Z,1.58
2023-04-20T12:37:41.608Z,1.50
2023-04-20T12:40:08.900Z,2.05
2023-04-20T12:42:36.072Z,1.20
2023-04-20T12:45:03.392Z,1.40
2023-04-20T12:47:30.987Z,1.13
2023-04-20T12:49:58.034Z,1.60
2023-04-20T12:52:25.038Z,1.33
2023-04-20T12:54:52.236Z,1.42
2023-04-20T12:57:19.456Z,1.35
2023-04-20T12:59:48.713Z,1.80
2023-04-20T13:02:16.861Z,1.63
2023-04-20T13:04:44.455Z,1.75
2023-04-20T13:07:12.230Z,1.50
2023-04-20T13:09:39.493Z,1.30
2023-04-20T13:12:06.601Z,1.65
2023-04-20T13:14:34.963Z,1.52
2023-04-20T13:17:02.268Z,1.92
2023-04-20T13:19:30.920Z,1.70
2023-04-20T13:21:57.972Z,1.60
2023-04-20T13:24:25.476Z,1.63
2023-04-20T13:26:56.717Z,1.73
2023-04-20T13:29:24.877Z,2.08
2023-04-20T13:31:52.208Z,1.40
2023-04-20T13:34:19.426Z,1.30
2023-04-20T13:36:47.616Z,1.60
2023-04-20T13:39:15.079Z,1.38
2023-04-20T13:41:42.232Z,1.80
2023-04-20T13:44:15.760Z,1.83
2023-04-20T13:46:44.729Z,1.67
2023-04-20T13:49:13.514Z,1.60
2023-04-20T13:51:41.474Z,1.40
2023-04-20T13:54:08.778Z,1.92
2023-04-20T13:56:35.910Z,1.67
2023-04-20T13:59:04.065Z,1.73
2023-04-20T14:01:31.650Z,1.55
2023-04-20T14:03:59.416Z,1.60
2023-04-20T14:06:27.721Z,1.88
2023-04-20T14:08:55.011Z,1.50
2023-04-20T14:11:22.158Z,1.52
2023-04-20T14:13:49.320Z,1.58
2023-04-20T14:16:16.649Z,1.50
2023-04-20T14:18:45.007Z,1.95
2023-04-20T14:21:12.263Z,1.70
2023-04-20T14:23:39.272Z,2.10
2023-04-20T14:26:06.435Z,2.25
2023-04-20T14:28:33.779Z,1.98
2023-04-20T14:31:02.285Z,1.27
2023-04-20T14:33:29.349Z,1.67
2023-04-20T14:35:59.659Z,1.70
2023-04-20T14:38:26.870Z,1.52
2023-04-20T14:40:53.937Z,1.45
2023-04-20T14:43:20.941Z,2.08
2023-04-20T14:45:47.948Z,1.75
2023-04-20T14:48:14.937Z,1.77
2023-04-20T14:50:41.990Z,1.88
2023-04-20T14:53:09.788Z,2.20
2023-04-20T14:55:36.844Z,1.65
2023-04-20T14:58:03.830Z,1.90
2023-04-20T15:00:30.904Z,1.58
2023-04-20T15:02:58.200Z,1.95
2023-04-20T15:05:28.945Z,2.10
2023-04-20T15:07:57.694Z,2.67
2023-04-20T15:10:27.701Z,1.50
2023-04-20T15:12:54.665Z,2.00
2023-04-20T15:15:21.974Z,1.75
2023-04-20T15:17:49.175Z,1.70
2023-04-20T15:20:16.478Z,1.85
2023-04-20T15:22:43.669Z,2.17
2023-04-20T15:25:10.872Z,2.35
2023-04-20T15:27:40.598Z,1.73
2023-04-20T15:30:08.281Z,1.85
2023-04-20T15:32:35.358Z,1.60
2023-04-20T15:35:02.761Z,1.58
2023-04-20T15:37:30.257Z,1.77
2023-04-20T15:39:59.126Z,2.22
2023-04-20T15:42:27.411Z,1.90
2023-04-20T15:44:54.528Z,2.25
2023-04-20T15:47:21.723Z,1.70
2023-04-20T15:49:48.683Z,1.75
2023-04-20T15:52:15.762Z,1.60
2023-04-20T15:54:43.877Z,1.83
2023-04-20T15:57:11.007Z,1.80
2023-04-20T15:59:38.031Z,1.98
2023-04-20T16:02:05.358Z,1.50
2023-04-20T16:04:32.446Z,2.10
2023-04-20T16:06:59.708Z,2.08
2023-04-20T16:09:26.697Z,1.77
2023-04-20T16:11:53.685Z,1.70
2023-04-20T16:14:20.898Z,1.73
2023-04-20T16:16:48.267Z,2.00
2023-04-20T16:19:15.275Z,1.98
2023-04-20T16:21:42.216Z,2.55
2023-04-20T16:24:09.134Z,2.10
2023-04-20T16:26:36.328Z,2.50
2023-04-20T16:29:03.960Z,2.03
2023-04-20T16:31:31.461Z,2.53
2023-04-20T16:34:00.697Z,2.00
2023-04-20T16:36:27.743Z,1.90
2023-04-20T16:38:54.820Z,3.13
2023-04-20T16:41:22.117Z,2.42
2023-04-20T16:43:49.117Z,2.20
2023-04-20T16:46:22.232Z,2.42
2023-04-20T16:48:50.937Z,2.40
2023-04-20T16:51:18.041Z,2.53
2023-04-20T16:53:45.471Z,2.30
2023-04-20T16:56:12.818Z,2.25
2023-04-20T16:58:40.122Z,2.15
2023-04-20T17:01:07.778Z,2.15
2023-04-20T17:03:35.074Z,1.73
2023-04-20T17:06:07.452Z,2.38
2023-04-20T17:08:34.712Z,1.77
2023-04-20T17:11:02.019Z,2.20
2023-04-20T17:13:29.084Z,2.33
2023-04-20T17:15:56.636Z,2.13
2023-04-20T17:18:23.701Z,2.45
2023-04-20T17:20:50.806Z,2.20
2023-04-20T17:23:19.240Z,2.50
2023-04-20T17:25:47.415Z,1.92
2023-04-20T17:28:16.211Z,2.15
2023-04-20T17:30:43.286Z,2.47
2023-04-20T17:33:12.380Z,2.45
2023-04-20T17:35:39.744Z,2.35
2023-04-20T17:38:07.140Z,2.13
2023-04-20T17:40:42.028Z,2.40
2023-04-20T17:43:09.305Z,2.38
2023-04-20T17:45:37.107Z,2.80
2023-04-20T17:48:09.039Z,2.03
2023-04-20T17:50:36.481Z,2.22
2023-04-20T17:53:07.137Z,2.53
2023-04-20T17:55:38.506Z,2.17
2023-04-20T17:58:05.724Z,2.10
2023-04-20T18:00:33.469Z,2.47
2023-04-20T18:03:00.821Z,2.78
2023-04-20T18:05:28.077Z,3.15
2023-04-20T18:07:58.294Z,2.67
2023-04-20T18:10:25.479Z,2.00
2023-04-20T18:12:53.899Z,2.40
2023-04-20T18:15:21.258Z,2.72
2023-04-20T18:17:49.293Z,2.30
2023-04-20T18:20:16.820Z,1.88
2023-04-20T18:22:46.282Z,2.05
2023-04-20T18:25:13.345Z,1.73
2023-04-20T18:27:40.775Z,2.05
2023-04-20T18:30:09.660Z,2.03
2023-04-20T18:32:38.646Z,2.25
2023-04-20T18:35:06.794Z,2.97
2023-04-20T18:37:36.157Z,2.20
2023-04-20T18:40:04.619Z,2.40
2023-04-20T18:42:31.577Z,2.38
2023-04-20T18:44:58.566Z,2.50
2023-04-20T18:47:27.841Z,1.98
2023-04-20T18:49:54.917Z,1.90
2023-04-20T18:52:23.217Z,1.92
2023-04-20T18:54:50.355Z,2.38
2023-04-20T18:57:18.035Z,2.58
2023-04-20T18:59:45.091Z,2.10
2023-04-20T19:02:13.632Z,2.47
2023-04-20T19:04:41.188Z,2.75
2023-04-20T19:07:08.244Z,2.95
2023-04-20T19:09:35.421Z,2.10
2023-04-20T19:12:02.655Z,1.90
2023-04-20T19:14:29.858Z,2.15
2023-04-20T19:16:58.716Z,2.42
2023-04-20T19:19:26.066Z,2.63
2023-04-20T19:21:59.744Z,2.50
2023-04-20T19:24:29.472Z,2.83
2023-04-20T19:26:56.949Z,1.90
2023-04-20T19:29:24.176Z,2.58
2023-04-20T19:31:51.187Z,3.05
2023-04-20T19:34:19.892Z,2.30
2023-04-20T19:36:47.252Z,2.72
2023-04-20T19:39:14.394Z,1.95
2023-04-20T19:41:42.037Z,2.30
2023-04-20T19:44:12.060Z,2.40
2023-04-20T19:46:40.730Z,2.42
2023-04-20T19:49:08.000Z,2.10
2023-04-20T19:51:35.344Z,2.10
2023-04-20T19:54:04.304Z,2.75
2023-04-20T19:56:31.742Z,2.38
2023-04-20T19:58:59.058Z,2.55
2023-04-20T20:01:28.505Z,2.10
2023-04-20T20:03:56.099Z,2.35
2023-04-20T20:06:23.943Z,2.05
2023-04-20T20:08:51.798Z,3.53
2023-04-20T20:11:19.411Z,2.65
2023-04-20T20:13:47.170Z,3.47
2023-04-20T20:16:14.388Z,4.00
2023-04-20T20:18:43.516Z,2.50
2023-04-20T20:21:11.107Z,3.03
2023-04-20T20:23:38.253Z,2.28
2023-04-20T20:26:06.750Z,2.80
2023-04-20T20:28:33.980Z,2.60
2023-04-20T20:31:01.243Z,2.85
2023-04-20T20:33:28.518Z,2.55
2023-04-20T20:35:55.702Z,2.03
2023-04-20T20:38:23.019Z,2.63
2023-04-20T20:40:51.035Z,2.40
2023-04-20T20:43:21.783Z,1.77
2023-04-20T20:45:49.086Z,1.80
2023-04-20T20:48:16.359Z,2.35
2023-04-20T20:50:44.427Z,2.15
2023-04-20T20:53:11.504Z,1.92
2023-04-20T20:55:41.005Z,1.88
2023-04-20T20:58:08.126Z,1.98
2023-04-20T21:00:35.636Z,1.90
2023-04-20T21:03:02.923Z,1.83
2023-04-20T21:05:30.737Z,2.63
2023-04-20T21:07:57.774Z,2.10
2023-04-20T21:10:24.831Z,1.80
2023-04-20T21:12:52.096Z,2.47
2023-04-20T21:15:20.377Z,2.03
2023-04-20T21:17:50.551Z,2.15
2023-04-20T21:20:17.743Z,2.20
2023-04-20T21:22:44.877Z,2.30
2023-04-20T21:25:12.449Z,1.80
2023-04-20T21:27:39.488Z,1.70
2023-04-20T21:30:06.974Z,2.08
2023-04-20T21:32:35.214Z,2.25
2023-04-20T21:35:02.174Z,1.80
2023-04-20T21:37:29.268Z,1.65
2023-04-20T21:39:56.424Z,2.00
2023-04-20T21:42:23.492Z,1.70
2023-04-20T21:44:50.512Z,2.20
2023-04-20T21:47:17.483Z,1.60
2023-04-20T21:49:46.891Z,1.98
2023-04-20T21:52:14.125Z,2.13
2023-04-20T21:54:42.020Z,2.38
2023-04-20T21:57:09.110Z,2.83
2023-04-20T21:59:36.966Z,1.65
2023-04-20T22:02:04.174Z,2.35
2023-04-20T22:04:32.298Z,1.98
2023-04-20T22:07:00.443Z,2.58
2023-04-20T22:09:27.857Z,2.40
2023-04-20T22:11:55.136Z,2.10
2023-04-20T22:14:22.449Z,2.08
2023-04-20T22:16:49.451Z,2.30
2023-04-20T22:19:16.801Z,1.90
2023-04-20T22:21:43.836Z,2.20
2023-04-20T22:24:12.984Z,2.95
2023-04-20T22:26:39.966Z,2.60
2023-04-20T22:29:06.944Z,2.30
2023-04-20T22:31:33.985Z,2.83
2023-04-20T22:34:00.922Z,2.97
2023-04-20T22:36:28.173Z,3.05
2023-04-20T22:38:55.263Z,2.72
2023-04-20T22:41:22.276Z,2.70
2023-04-20T22:43:49.231Z,3.22
2023-04-20T22:46:16.191Z,3.90
2023-04-20T22:48:43.223Z,3.28
2023-04-20T22:51:10.169Z,3.08
2023-04-20T22:53:37.064Z,3.85
2023-04-20T22:56:07.800Z,3.13
2023-04-20T22:58:35.296Z,4.07
2023-04-20T23:01:02.637Z,4.18
2023-04-20T23:03:29.775Z,3.58
2023-04-20T23:05:57.641Z,3.72
2023-04-20T23:08:25.737Z,4.25
2023-04-20T23:10:55.693Z,3.70
2023-04-20T23:13:24.640Z,3.88
2023-04-20T23:15:52.057Z,4.75
2023-04-20T23:18:19.187Z,4.03
2023-04-20T23:20:46.186Z,3.95
2023-04-20T23:23:13.160Z,3.85
2023-04-20T23:25:40.352Z,4.18
2023-04-20T23:28:07.299Z,4.13
2023-04-20T23:30:35.400Z,4.63
2023-04-20T23:33:02.403Z,3.50
2023-04-20T23:35:29.463Z,4.93
2023-04-20T23:37:58.074Z,3.38
2023-04-20T23:40:25.488Z,4.25
2023-04-20T23:42:52.489Z,4.38
2023-04-20T23:45:19.466Z,4.72
2023-04-20T23:47:46.412Z,4.10
2023-04-20T23:50:14.104Z,3.67
2023-04-20T23:52:41.415Z,4.15
2023-04-20T23:55:09.349Z,4.90
2023-04-20T23:57:36.297Z,4.82
